Enter the Airport ICAO Code

Search by Airport or City

Current Weather

GMMN | Mohammed V International Airport

Casablanca, Morocco

Last Update 30 Minutes Ago

Clear Sky

Temperature of 16 ºC

Light to Moderate Winds from NorthEast

Temperature

16 ºC

Dew Point Temperature

08 ºC

Relative Humidity

59.17 %

Wind Direction

NorthEast (040º, Without Significant Variations)

Wind Velocity

11 km/h (06 kt)

Gusts

None

Visibility

No Significant Reductions

Sea Level Pressure

1015 hPa (Hectopascals)

Layers of Clouds

None

METAR GMMN 022230Z 04006KT CAVOK 16/08 Q1015 NOSIG

Weather Forecast

GMMN | Mohammed V International Airport

Casablanca, Morocco

Forecast valid for the next 25 Hours

From now on it is expected:

Mostly Cloudy Sky

Moderate Winds from NorthEast

In 2 hours it is expected the begining of 10 hours with intermittent periods of:

Light to Moderate Winds from NorthWest

In 5 hours it is expected the begining of 5 hours with intermittent periods of:

Mist

In 21 to 25 hours it is expected the begining of:

Mist

Maximum Temperature

No Data

Minimum Temperature

No Data

TAF GMMN 021700Z 0218/0324 03012KT 9999 FEW020 BKN100 TEMPO 0301/0311 30005KT PROB040 TEMPO 0304/0309 2500 BR SCT008 BECMG 0320/0324 1500 BR BKN006